createdAt,value
2023-03-11T00:00:54.583Z,2.00
2023-03-11T00:03:24.885Z,4.47
2023-03-11T00:05:53.264Z,2.92
2023-03-11T00:08:22.622Z,5.57
2023-03-11T00:10:52.877Z,4.35
2023-03-11T00:13:19.431Z,2.28
2023-03-11T00:15:48.558Z,1.02
2023-03-11T00:18:15.853Z,3.13
2023-03-11T00:20:44.993Z,3.08
2023-03-11T00:23:12.816Z,1.33
2023-03-11T00:25:40.089Z,2.03
2023-03-11T00:28:07.455Z,1.05
2023-03-11T00:30:34.035Z,4.38
2023-03-11T00:33:00.638Z,9.10
2023-03-11T00:35:30.723Z,1.27
2023-03-11T00:38:03.399Z,2.58
2023-03-11T00:40:32.162Z,4.45
2023-03-11T00:42:59.267Z,2.45
2023-03-11T00:45:27.138Z,1.75
2023-03-11T00:47:54.383Z,1.83
2023-03-11T00:50:25.245Z,2.30
2023-03-11T00:52:52.272Z,2.05
2023-03-11T00:55:22.417Z,2.20
2023-03-11T00:57:52.264Z,0.63
2023-03-11T01:00:20.344Z,1.08
2023-03-11T01:02:46.782Z,3.40
2023-03-11T01:05:13.994Z,2.42
2023-03-11T01:07:40.643Z,1.20
2023-03-11T01:10:08.652Z,2.75
2023-03-11T01:12:35.062Z,2.03
2023-03-11T01:15:02.238Z,0.95
2023-03-11T01:17:28.635Z,4.25
2023-03-11T01:19:55.023Z,1.08
2023-03-11T01:22:21.449Z,7.78
2023-03-11T01:24:47.892Z,5.28
2023-03-11T01:27:14.266Z,2.20
2023-03-11T01:29:40.668Z,3.90
2023-03-11T01:32:07.373Z,1.55
2023-03-11T01:34:35.985Z,5.50
2023-03-11T01:37:03.505Z,1.45
2023-03-11T01:39:30.017Z,3.13
2023-03-11T01:41:56.503Z,1.20
2023-03-11T01:44:23.137Z,2.08
2023-03-11T01:46:52.334Z,2.80
2023-03-11T01:49:20.655Z,4.15
2023-03-11T01:51:53.600Z,1.98
2023-03-11T01:54:21.353Z,2.50
2023-03-11T01:56:48.924Z,1.27
2023-03-11T01:59:20.098Z,2.42
2023-03-11T02:01:55.761Z,0.47
2023-03-11T02:04:22.215Z,2.75
2023-03-11T02:06:50.373Z,1.30
2023-03-11T02:09:17.847Z,1.08
2023-03-11T02:11:44.329Z,2.15
2023-03-11T02:14:10.778Z,2.05
2023-03-11T02:16:37.581Z,4.30
2023-03-11T02:19:22.409Z,2.50
2023-03-11T02:21:49.652Z,3.67
2023-03-11T02:24:22.742Z,1.93
2023-03-11T02:26:58.704Z,0.23
2023-03-11T02:29:28.097Z,3.43
2023-03-11T02:31:59.424Z,0.40
2023-03-11T02:34:29.214Z,1.80
2023-03-11T02:36:55.724Z,4.20
2023-03-11T02:39:30.713Z,0.80
2023-03-11T02:41:58.388Z,0.63
2023-03-11T02:44:25.433Z,0.93
2023-03-11T02:46:53.354Z,1.38
2023-03-11T02:49:21.574Z,1.57
2023-03-11T02:51:48.243Z,2.03
2023-03-11T02:54:14.624Z,3.37
2023-03-11T02:56:41.037Z,0.27
2023-03-11T02:59:07.402Z,2.43
2023-03-11T03:01:33.823Z,0.63
2023-03-11T03:04:00.318Z,1.23
2023-03-11T03:06:28.581Z,0.70
2023-03-11T03:08:55.427Z,0.60
2023-03-11T03:11:21.807Z,1.27
2023-03-11T03:13:48.254Z,0.10
2023-03-11T03:16:14.711Z,3.20
2023-03-11T03:18:41.168Z,2.43
2023-03-11T03:21:07.620Z,0.60
2023-03-11T03:23:35.311Z,0.50
2023-03-11T03:26:02.334Z,1.27
2023-03-11T03:28:28.818Z,2.40
2023-03-11T03:30:55.342Z,1.63
2023-03-11T03:33:21.883Z,0.43
2023-03-11T03:35:48.358Z,0.37
2023-03-11T03:38:14.944Z,3.13
2023-03-11T03:40:46.271Z,1.20
2023-03-11T03:43:12.685Z,5.77
2023-03-11T03:45:39.587Z,0.30
2023-03-11T03:48:07.183Z,2.20
2023-03-11T03:50:33.728Z,0.70
2023-03-11T03:53:00.147Z,0.93
2023-03-11T03:55:26.571Z,1.57
2023-03-11T03:57:53.015Z,0.53
2023-03-11T04:00:19.734Z,1.30
2023-03-11T04:02:46.191Z,1.13
2023-03-11T04:05:12.668Z,1.30
2023-03-11T04:07:39.119Z,1.97
2023-03-11T04:10:06.201Z,2.83
2023-03-11T04:12:32.716Z,3.70
2023-03-11T04:14:59.064Z,1.07
2023-03-11T04:17:25.573Z,0.10
2023-03-11T04:19:52.035Z,0.53
2023-03-11T04:22:18.448Z,0.10
2023-03-11T04:24:44.928Z,3.77
2023-03-11T04:27:11.418Z,0.77
2023-03-11T04:29:37.900Z,1.03
2023-03-11T04:32:04.706Z,0.50
2023-03-11T04:34:31.129Z,0.30
2023-03-11T04:36:57.506Z,0.30
2023-03-11T04:39:24.011Z,1.93
2023-03-11T04:41:50.427Z,0.37
2023-03-11T04:44:16.918Z,0.83
2023-03-11T04:46:43.323Z,0.80
2023-03-11T04:49:10.403Z,1.23
2023-03-11T04:51:36.931Z,0.30
2023-03-11T04:54:03.554Z,1.20
2023-03-11T04:56:30.110Z,0.57
2023-03-11T04:58:56.475Z,0.27
2023-03-11T05:01:22.942Z,0.90
2023-03-11T05:03:49.464Z,0.30
2023-03-11T05:06:15.920Z,0.10
2023-03-11T05:08:42.364Z,0.30
2023-03-11T05:11:08.905Z,0.67
2023-03-11T05:13:35.876Z,1.17
2023-03-11T05:16:02.473Z,1.03
2023-03-11T05:18:30.908Z,0.30
2023-03-11T05:20:57.263Z,0.33
2023-03-11T05:23:23.747Z,0.67
2023-03-11T05:25:50.156Z,0.30
2023-03-11T05:28:16.593Z,0.20
2023-03-11T05:30:43.010Z,0.40
2023-03-11T05:33:09.438Z,0.90
2023-03-11T05:35:35.968Z,1.83
2023-03-11T05:38:02.454Z,0.57
2023-03-11T05:40:28.837Z,0.97
2023-03-11T05:42:55.296Z,1.27
2023-03-11T05:45:21.702Z,1.00
2023-03-11T05:47:48.065Z,3.30
2023-03-11T05:50:14.505Z,0.50
2023-03-11T05:52:41.021Z,1.50
2023-03-11T05:55:09.842Z,1.57
2023-03-11T05:57:36.262Z,0.40
2023-03-11T06:00:07.133Z,1.07
2023-03-11T06:02:33.541Z,0.40
2023-03-11T06:04:59.995Z,0.63
2023-03-11T06:07:26.538Z,1.73
2023-03-11T06:09:52.910Z,1.30
2023-03-11T06:12:19.336Z,1.20
2023-03-11T06:14:45.880Z,0.70
2023-03-11T06:17:12.245Z,1.50
2023-03-11T06:19:38.614Z,1.00
2023-03-11T06:22:05.123Z,1.43
2023-03-11T06:24:31.604Z,0.30
2023-03-11T06:26:58.024Z,0.33
2023-03-11T06:29:26.622Z,0.20
2023-03-11T06:31:53.122Z,0.93
2023-03-11T06:34:19.624Z,0.23
2023-03-11T06:36:46.088Z,1.27
2023-03-11T06:39:14.582Z,0.10
2023-03-11T06:41:41.962Z,0.77
2023-03-11T06:44:10.613Z,2.20
2023-03-11T06:46:37.093Z,0.47
2023-03-11T06:49:03.957Z,0.93
2023-03-11T06:51:30.393Z,1.90
2023-03-11T06:53:57.041Z,2.93
2023-03-11T06:56:24.265Z,1.20
2023-03-11T06:58:50.931Z,3.60
2023-03-11T07:01:23.795Z,0.77
2023-03-11T07:03:51.332Z,0.70
2023-03-11T07:06:23.360Z,0.83
2023-03-11T07:08:51.446Z,3.10
2023-03-11T07:11:24.123Z,1.03
2023-03-11T07:13:51.230Z,2.63
2023-03-11T07:16:25.655Z,1.40
2023-03-11T07:18:54.678Z,2.13
2023-03-11T07:21:23.038Z,2.17
2023-03-11T07:23:58.170Z,2.10
2023-03-11T07:26:25.483Z,2.53
2023-03-11T07:28:53.634Z,4.07
2023-03-11T07:31:23.670Z,6.10
2023-03-11T07:33:51.142Z,5.77
2023-03-11T07:36:20.544Z,6.93
2023-03-11T07:38:47.698Z,5.40
2023-03-11T07:41:16.086Z,6.23
2023-03-11T07:43:43.287Z,3.93
2023-03-11T07:46:10.987Z,4.75
2023-03-11T07:48:38.680Z,3.88
2023-03-11T07:51:12.426Z,4.25
2023-03-11T07:53:40.659Z,2.38
2023-03-11T07:56:09.824Z,7.35
2023-03-11T07:58:37.004Z,4.32
2023-03-11T08:01:09.102Z,4.28
2023-03-11T08:03:36.294Z,7.25
2023-03-11T08:06:02.998Z,7.60
2023-03-11T08:08:29.635Z,4.18
2023-03-11T08:10:56.118Z,4.32
2023-03-11T08:13:22.642Z,6.30
2023-03-11T08:15:49.130Z,4.35
2023-03-11T08:18:15.625Z,3.90
2023-03-11T08:20:42.034Z,4.60
2023-03-11T08:23:08.491Z,6.25
2023-03-11T08:25:38.701Z,9.60
2023-03-11T08:28:07.534Z,2.10
2023-03-11T08:30:34.625Z,2.70
2023-03-11T08:33:01.408Z,4.03
2023-03-11T08:35:28.097Z,3.00
2023-03-11T08:37:54.676Z,5.07
2023-03-11T08:40:21.209Z,2.90
2023-03-11T08:42:47.654Z,3.53
2023-03-11T08:45:14.223Z,3.58
2023-03-11T08:47:40.920Z,5.43
2023-03-11T08:50:12.915Z,0.70
2023-03-11T08:52:39.314Z,3.83
2023-03-11T08:55:06.443Z,1.55
2023-03-11T08:57:33.010Z,2.10
2023-03-11T08:59:59.465Z,1.02
2023-03-11T09:02:26.187Z,3.13
2023-03-11T09:04:52.681Z,1.88
2023-03-11T09:07:19.307Z,1.92
2023-03-11T09:09:45.752Z,3.45
2023-03-11T09:12:14.088Z,2.47
2023-03-11T09:14:41.746Z,2.08
2023-03-11T09:17:09.629Z,3.00
2023-03-11T09:19:36.604Z,1.75
2023-03-11T09:22:04.329Z,2.20
2023-03-11T09:24:35.016Z,2.55
2023-03-11T09:27:02.182Z,1.90
2023-03-11T09:29:29.384Z,2.90
2023-03-11T09:31:55.918Z,1.25
2023-03-11T09:34:22.607Z,3.05
2023-03-11T09:36:49.098Z,0.55
2023-03-11T09:39:15.669Z,1.48
2023-03-11T09:41:59.337Z,4.68
2023-03-11T09:45:02.082Z,1.77
2023-03-11T09:47:50.433Z,2.38
2023-03-11T09:50:46.784Z,0.68
2023-03-11T09:53:21.808Z,1.75
2023-03-11T09:55:51.056Z,3.50
2023-03-11T09:58:39.387Z,2.53
2023-03-11T10:01:18.424Z,2.53
2023-03-11T10:03:45.903Z,1.88
2023-03-11T10:06:16.824Z,1.27
2023-03-11T10:08:54.527Z,4.22
2023-03-11T10:11:45.397Z,3.97
2023-03-11T10:14:24.138Z,2.17
2023-03-11T10:17:02.539Z,15.15
2023-03-11T10:19:41.912Z,5.30
2023-03-11T10:22:20.823Z,2.03
2023-03-11T10:25:16.511Z,2.92
2023-03-11T10:27:48.750Z,2.42
2023-03-11T10:30:27.633Z,2.72
2023-03-11T10:33:07.744Z,2.95
2023-03-11T10:35:42.327Z,1.70
2023-03-11T10:40:42.516Z,1.88
2023-03-11T10:43:19.790Z,2.67
2023-03-11T10:45:48.477Z,3.03
2023-03-11T10:48:19.688Z,2.70
2023-03-11T10:50:55.986Z,7.88
2023-03-11T10:53:22.615Z,2.53
2023-03-11T10:55:54.754Z,2.42
2023-03-11T10:58:24.316Z,0.77
2023-03-11T11:01:17.896Z,2.55
2023-03-11T11:03:49.166Z,1.52
2023-03-11T11:06:23.837Z,5.45
2023-03-11T11:11:29.936Z,1.25
2023-03-11T11:13:58.606Z,4.13
2023-03-11T11:16:25.997Z,1.92
2023-03-11T11:19:03.730Z,2.45
2023-03-11T11:21:48.753Z,4.47
2023-03-11T11:24:20.491Z,0.90
2023-03-11T11:27:11.790Z,1.23
2023-03-11T11:29:38.391Z,1.55
2023-03-11T11:32:29.128Z,2.90
2023-03-11T11:35:08.180Z,1.50
2023-03-11T11:37:41.749Z,1.90
2023-03-11T11:40:14.568Z,0.95
2023-03-11T11:42:46.650Z,2.63
2023-03-11T11:45:26.073Z,2.88
2023-03-11T11:47:56.626Z,2.63
2023-03-11T11:50:55.721Z,1.98
2023-03-11T11:53:37.378Z,3.58
2023-03-11T11:56:03.904Z,2.20
2023-03-11T11:58:31.252Z,3.60
2023-03-11T12:01:32.619Z,1.48
2023-03-11T12:04:27.088Z,2.75
2023-03-11T12:07:20.248Z,2.63
2023-03-11T12:09:57.069Z,2.83
2023-03-11T12:12:29.888Z,1.75
2023-03-11T12:15:08.906Z,1.95
2023-03-11T12:17:39.714Z,3.70
2023-03-11T12:20:18.584Z,3.58
2023-03-11T12:22:59.990Z,3.33
2023-03-11T12:25:38.487Z,2.80
2023-03-11T12:28:16.710Z,1.13
2023-03-11T12:30:48.329Z,1.50
2023-03-11T12:33:27.547Z,2.72
2023-03-11T12:35:59.056Z,1.90
2023-03-11T12:38:38.792Z,2.60
2023-03-11T12:41:07.983Z,2.55
2023-03-11T12:43:35.447Z,0.88
2023-03-11T12:46:06.148Z,1.33
2023-03-11T12:48:42.829Z,3.15
2023-03-11T12:51:27.587Z,1.73
2023-03-11T12:56:42.613Z,1.13
2023-03-11T12:59:47.847Z,1.10
2023-03-11T13:02:32.654Z,1.52
2023-03-11T13:05:23.934Z,1.52
2023-03-11T13:08:14.186Z,3.70
2023-03-11T13:10:46.137Z,2.22
2023-03-11T13:13:35.260Z,1.20
2023-03-11T13:16:16.583Z,5.15
2023-03-11T13:18:46.474Z,3.17
2023-03-11T13:21:27.795Z,2.22
2023-03-11T13:24:19.253Z,1.70
2023-03-11T13:26:56.248Z,3.45
2023-03-11T13:30:04.788Z,0.65
2023-03-11T13:32:34.027Z,2.45
2023-03-11T13:35:11.556Z,2.10
2023-03-11T13:37:48.029Z,1.95
2023-03-11T13:40:36.514Z,5.13
2023-03-11T13:43:08.522Z,1.33
2023-03-11T13:45:37.026Z,0.85
2023-03-11T13:48:22.205Z,1.60
2023-03-11T13:50:55.440Z,3.65
2023-03-11T13:53:28.784Z,1.60
2023-03-11T13:55:55.263Z,1.40
2023-03-11T13:58:24.294Z,2.90
2023-03-11T14:00:53.817Z,3.25
2023-03-11T14:03:23.742Z,3.25
2023-03-11T14:05:57.084Z,0.70
2023-03-11T14:08:32.194Z,1.80
2023-03-11T14:11:01.308Z,2.22
2023-03-11T14:13:50.140Z,2.50
2023-03-11T14:16:31.390Z,4.18
2023-03-11T14:19:15.253Z,4.10
2023-03-11T14:21:43.180Z,4.40
2023-03-11T14:24:17.269Z,1.00
2023-03-11T14:26:44.925Z,2.33
2023-03-11T14:29:17.097Z,1.48
2023-03-11T14:31:45.351Z,4.22
2023-03-11T14:34:14.541Z,2.72
2023-03-11T14:36:48.518Z,1.67
2023-03-11T14:39:35.119Z,2.65
2023-03-11T14:42:04.562Z,2.45
2023-03-11T14:44:35.011Z,3.17
2023-03-11T14:47:13.697Z,0.95
2023-03-11T14:49:40.564Z,0.80
2023-03-11T14:52:19.220Z,1.73
2023-03-11T14:54:46.765Z,2.17
2023-03-11T14:57:37.149Z,3.30
2023-03-11T15:00:07.943Z,3.28
2023-03-11T15:02:56.203Z,4.13
2023-03-11T15:05:54.046Z,2.13
2023-03-11T15:08:22.647Z,4.07
2023-03-11T15:11:04.381Z,1.30
2023-03-11T15:13:31.273Z,3.42
2023-03-11T15:15:59.428Z,3.45
2023-03-11T15:18:31.981Z,7.68
2023-03-11T15:21:12.496Z,1.33
2023-03-11T15:23:39.277Z,4.75
2023-03-11T15:26:06.954Z,3.00
2023-03-11T15:28:36.523Z,2.40
2023-03-11T15:31:15.307Z,4.00
2023-03-11T15:33:42.067Z,1.90
2023-03-11T15:36:27.448Z,1.58
2023-03-11T15:39:18.013Z,2.92
2023-03-11T15:41:57.330Z,3.88
2023-03-11T15:44:30.854Z,2.20
2023-03-11T15:47:00.397Z,2.80
2023-03-11T15:49:28.332Z,2.20
2023-03-11T15:52:01.054Z,2.20
2023-03-11T15:54:28.289Z,3.13
2023-03-11T15:56:57.509Z,3.22
2023-03-11T15:59:24.211Z,1.05
2023-03-11T16:01:50.739Z,4.93
2023-03-11T16:04:19.550Z,1.17
2023-03-11T16:06:56.513Z,1.58
2023-03-11T16:09:31.523Z,1.77
2023-03-11T16:11:57.919Z,2.85
2023-03-11T16:14:24.297Z,1.55
2023-03-11T16:16:50.666Z,1.90
2023-03-11T16:19:17.031Z,2.55
2023-03-11T16:21:46.804Z,1.42
2023-03-11T16:24:21.612Z,1.23
2023-03-11T16:26:49.143Z,1.40
2023-03-11T16:29:19.248Z,1.42
2023-03-11T16:31:46.628Z,3.40
2023-03-11T16:34:13.198Z,1.77
2023-03-11T16:36:39.690Z,3.88
2023-03-11T16:39:06.256Z,3.88
2023-03-11T16:41:44.749Z,2.75
2023-03-11T16:44:11.831Z,3.65
2023-03-11T16:46:38.503Z,2.65
2023-03-11T16:49:05.467Z,2.35
2023-03-11T16:51:32.568Z,2.30
2023-03-11T16:53:59.609Z,3.30
2023-03-11T16:56:26.372Z,3.50
2023-03-11T16:58:52.866Z,1.38
2023-03-11T17:01:21.585Z,3.83
2023-03-11T17:03:51.919Z,4.35
2023-03-11T17:06:19.696Z,5.90
2023-03-11T17:08:48.983Z,4.55
2023-03-11T17:11:21.227Z,2.60
2023-03-11T17:13:47.901Z,3.33
2023-03-11T17:16:14.547Z,3.85
2023-03-11T17:18:40.961Z,4.45
2023-03-11T17:21:09.566Z,3.75
2023-03-11T17:23:36.126Z,3.80
2023-03-11T17:26:07.099Z,4.90
2023-03-11T17:28:34.715Z,2.03
2023-03-11T17:31:01.219Z,2.70
2023-03-11T17:33:28.083Z,4.13
2023-03-11T17:36:02.318Z,2.65
2023-03-11T17:38:29.487Z,3.70
2023-03-11T17:40:56.521Z,3.08
2023-03-11T17:43:24.070Z,3.17
2023-03-11T17:45:51.022Z,2.88
2023-03-11T17:48:17.816Z,2.80
2023-03-11T17:50:44.280Z,7.45
2023-03-11T17:53:10.705Z,6.13
2023-03-11T17:55:40.241Z,5.65
2023-03-11T17:58:07.060Z,3.33
2023-03-11T18:00:33.460Z,4.25
2023-03-11T18:02:59.884Z,3.88
2023-03-11T18:05:26.455Z,4.60
2023-03-11T18:07:52.858Z,5.43
2023-03-11T18:10:19.356Z,4.47
2023-03-11T18:12:46.994Z,6.63
2023-03-11T18:15:19.247Z,4.55
2023-03-11T18:17:47.494Z,6.50
2023-03-11T18:20:15.015Z,11.25
2023-03-11T18:22:46.133Z,8.77
2023-03-11T18:25:13.825Z,9.25
2023-03-11T18:27:40.283Z,9.00
2023-03-11T18:30:08.110Z,13.27
2023-03-11T18:32:34.682Z,12.63
2023-03-11T18:35:01.234Z,16.27
2023-03-11T18:37:27.622Z,15.73
2023-03-11T18:39:54.113Z,26.60
2023-03-11T18:42:20.576Z,20.02
2023-03-11T18:44:47.072Z,15.07
2023-03-11T18:47:13.502Z,11.20
2023-03-11T18:49:40.787Z,8.48
2023-03-11T18:52:07.202Z,10.77
2023-03-11T18:54:33.600Z,9.30
2023-03-11T18:57:00.003Z,13.20
2023-03-11T18:59:27.664Z,12.65
2023-03-11T19:01:54.273Z,10.32
2023-03-11T19:04:20.729Z,12.82
2023-03-11T19:06:47.528Z,19.80
2023-03-11T19:09:14.609Z,20.70
2023-03-11T19:11:41.085Z,19.63
2023-03-11T19:14:07.520Z,14.25
2023-03-11T19:16:33.960Z,18.33
2023-03-11T19:19:01.193Z,8.00
2023-03-11T19:21:27.642Z,10.93
2023-03-11T19:23:55.269Z,14.57
2023-03-11T19:26:33.823Z,10.15
2023-03-11T19:29:04.521Z,9.15
2023-03-11T19:31:30.918Z,11.90
2023-03-11T19:33:57.351Z,10.13
2023-03-11T19:36:23.790Z,8.13
2023-03-11T19:38:50.294Z,11.57
2023-03-11T19:41:18.905Z,7.40
2023-03-11T19:43:46.554Z,7.28
2023-03-11T19:46:15.947Z,8.60
2023-03-11T19:48:42.643Z,9.52
2023-03-11T19:51:09.384Z,8.75
2023-03-11T19:53:36.904Z,6.78
2023-03-11T19:56:04.695Z,5.82
2023-03-11T19:58:31.533Z,5.40
2023-03-11T20:00:59.366Z,5.50
2023-03-11T20:03:26.852Z,6.85
2023-03-11T20:05:55.737Z,7.45
2023-03-11T20:08:23.594Z,7.13
2023-03-11T20:10:52.050Z,9.77
2023-03-11T20:13:20.326Z,14.18
2023-03-11T20:15:47.271Z,11.68
2023-03-11T20:18:13.812Z,15.77
2023-03-11T20:20:43.036Z,12.60
2023-03-11T20:23:09.580Z,14.40
2023-03-11T20:25:39.080Z,15.48
2023-03-11T20:28:06.033Z,12.23
2023-03-11T20:30:32.503Z,13.00
2023-03-11T20:32:59.027Z,12.18
2023-03-11T20:35:25.625Z,8.73
2023-03-11T20:37:52.099Z,9.10
2023-03-11T20:40:19.161Z,8.90
2023-03-11T20:42:48.935Z,10.52
2023-03-11T20:45:21.372Z,10.63
2023-03-11T20:47:49.426Z,11.00
2023-03-11T20:50:16.206Z,10.95
2023-03-11T20:52:42.802Z,9.85
2023-03-11T20:55:10.191Z,10.00
2023-03-11T20:57:37.696Z,11.18
2023-03-11T21:00:10.691Z,6.72
2023-03-11T21:02:39.177Z,8.52
2023-03-11T21:05:07.242Z,6.72
2023-03-11T21:07:33.688Z,6.90
2023-03-11T21:10:02.000Z,6.05
2023-03-11T21:12:31.116Z,8.15
2023-03-11T21:14:57.889Z,10.48
2023-03-11T21:17:24.390Z,6.22
2023-03-11T21:19:50.866Z,5.70
2023-03-11T21:22:17.371Z,5.40
2023-03-11T21:24:45.204Z,4.63
2023-03-11T21:27:11.766Z,5.63
2023-03-11T21:29:38.209Z,12.05
2023-03-11T21:32:05.029Z,5.57
2023-03-11T21:34:31.620Z,6.95
2023-03-11T21:36:57.984Z,5.57
2023-03-11T21:39:24.492Z,9.00
2023-03-11T21:41:53.217Z,6.07
2023-03-11T21:44:19.777Z,8.05
2023-03-11T21:46:46.252Z,8.18
2023-03-11T21:49:12.800Z,7.57
2023-03-11T21:51:39.337Z,8.55
2023-03-11T21:54:06.054Z,11.02
2023-03-11T21:56:32.596Z,8.48
2023-03-11T21:58:59.284Z,9.27
2023-03-11T22:01:26.208Z,7.20
2023-03-11T22:03:52.956Z,6.32
2023-03-11T22:06:19.505Z,7.57
2023-03-11T22:08:45.963Z,13.63
2023-03-11T22:11:17.599Z,16.50
2023-03-11T22:13:49.130Z,17.90
2023-03-11T22:16:15.860Z,24.60
2023-03-11T22:18:42.754Z,23.15
2023-03-11T22:21:10.840Z,22.98
2023-03-11T22:23:37.607Z,22.95
2023-03-11T22:26:04.186Z,24.60
2023-03-11T22:28:30.580Z,25.10
2023-03-11T22:30:57.031Z,21.42
2023-03-11T22:33:24.286Z,22.73
2023-03-11T22:35:53.631Z,18.17
2023-03-11T22:38:20.539Z,13.70
2023-03-11T22:40:47.180Z,12.60
2023-03-11T22:43:13.726Z,9.95
2023-03-11T22:45:40.499Z,9.80
2023-03-11T22:48:07.434Z,9.48
2023-03-11T22:50:33.971Z,11.38
2023-03-11T22:53:00.695Z,8.07
2023-03-11T22:55:27.220Z,7.43
2023-03-11T22:57:53.697Z,8.25
2023-03-11T23:00:22.178Z,10.30
2023-03-11T23:02:53.269Z,8.75
2023-03-11T23:05:20.473Z,6.55
2023-03-11T23:07:47.115Z,5.88
2023-03-11T23:10:16.098Z,6.88
2023-03-11T23:12:43.401Z,5.35
2023-03-11T23:15:14.527Z,10.38
2023-03-11T23:17:41.612Z,7.55
2023-03-11T23:20:12.987Z,6.93
2023-03-11T23:22:40.824Z,6.40
2023-03-11T23:25:12.270Z,6.45
2023-03-11T23:27:39.719Z,7.55
2023-03-11T23:30:06.926Z,7.85
2023-03-11T23:32:33.518Z,9.13
2023-03-11T23:34:59.997Z,5.55
2023-03-11T23:37:26.504Z,8.60
2023-03-11T23:39:53.037Z,5.53
2023-03-11T23:42:25.941Z,7.07
2023-03-11T23:44:53.204Z,5.75
2023-03-11T23:47:19.747Z,6.57
2023-03-11T23:49:46.130Z,7.00
2023-03-11T23:52:12.505Z,7.35
2023-03-11T23:54:38.993Z,10.10
2023-03-11T23:57:05.476Z,7.20
2023-03-11T23:59:31.956Z,6.25
